createdAt,value
2022-08-17T00:00:11.980Z,59.64
2022-08-17T00:01:11.102Z,59.71
2022-08-17T00:02:16.363Z,59.73
2022-08-17T00:03:10.816Z,59.80
2022-08-17T00:04:10.899Z,59.70
2022-08-17T00:05:09.791Z,59.62
2022-08-17T00:06:09.786Z,59.73
2022-08-17T00:07:10.107Z,59.75
2022-08-17T00:08:09.779Z,59.80
2022-08-17T00:09:09.750Z,59.92
2022-08-17T00:10:10.736Z,59.92
2022-08-17T00:11:09.754Z,59.89
2022-08-17T00:12:43.356Z,59.80
2022-08-17T00:13:10.865Z,59.93
2022-08-17T00:14:09.737Z,59.97
2022-08-17T00:15:10.537Z,60.03
2022-08-17T00:16:09.677Z,59.98
2022-08-17T00:17:09.701Z,60.03
2022-08-17T00:19:06.483Z,60.05
2022-08-17T00:19:10.640Z,60.06
2022-08-17T00:20:09.634Z,60.18
2022-08-17T00:21:10.689Z,60.36
2022-08-17T00:22:32.591Z,60.41
2022-08-17T00:23:10.813Z,60.46
2022-08-17T00:24:09.598Z,60.43
2022-08-17T00:25:09.582Z,60.43
2022-08-17T00:26:09.567Z,60.39
2022-08-17T00:27:09.572Z,60.60
2022-08-17T00:28:09.547Z,60.70
2022-08-17T00:29:09.692Z,60.86
2022-08-17T00:30:10.533Z,61.05
2022-08-17T00:31:09.536Z,61.16
2022-08-17T00:33:10.957Z,61.21
2022-08-17T00:33:16.869Z,61.36
2022-08-17T00:34:10.636Z,61.32
2022-08-17T00:35:09.480Z,61.43
2022-08-17T00:36:09.471Z,61.22
2022-08-17T00:37:09.477Z,61.05
2022-08-17T00:38:09.442Z,61.22
2022-08-17T00:39:09.428Z,61.23
2022-08-17T00:40:09.714Z,61.26
2022-08-17T00:41:09.412Z,61.32
2022-08-17T00:42:09.399Z,61.29
2022-08-17T00:43:09.409Z,61.27
2022-08-17T00:44:09.379Z,61.29
2022-08-17T00:45:09.367Z,61.26
2022-08-17T00:46:09.699Z,61.14
2022-08-17T00:47:09.348Z,61.25
2022-08-17T00:48:11.573Z,61.32
2022-08-17T00:49:10.367Z,61.28
2022-08-17T00:50:09.318Z,61.38
2022-08-17T00:51:09.298Z,61.40
2022-08-17T00:52:11.697Z,61.51
2022-08-17T00:53:09.289Z,61.47
2022-08-17T00:54:09.273Z,61.68
2022-08-17T00:55:09.265Z,61.70
2022-08-17T00:56:09.270Z,61.70
2022-08-17T00:57:09.238Z,61.78
2022-08-17T00:58:09.559Z,61.78
2022-08-17T00:59:09.229Z,61.73
2022-08-17T01:00:09.202Z,61.77
2022-08-17T01:01:09.286Z,62.01
2022-08-17T01:02:09.190Z,62.18
2022-08-17T01:03:09.181Z,62.30
2022-08-17T01:04:09.359Z,62.40
2022-08-17T01:05:09.209Z,62.39
2022-08-17T01:06:09.144Z,62.45
2022-08-17T01:07:09.150Z,62.27
2022-08-17T01:08:09.153Z,62.42
2022-08-17T01:09:09.110Z,62.20
2022-08-17T01:10:57.405Z,62.17
2022-08-17T01:11:10.135Z,62.19
2022-08-17T01:12:09.079Z,62.11
2022-08-17T01:13:09.077Z,62.06
2022-08-17T01:14:09.060Z,62.32
2022-08-17T01:15:09.083Z,62.53
2022-08-17T01:16:09.193Z,62.65
2022-08-17T01:17:09.031Z,62.76
2022-08-17T01:18:09.579Z,62.75
2022-08-17T01:19:09.011Z,62.75
2022-08-17T01:20:09.003Z,62.88
2022-08-17T01:21:09.049Z,62.76
2022-08-17T01:22:09.339Z,62.77
2022-08-17T01:23:08.984Z,62.74
2022-08-17T01:24:08.994Z,62.89
2022-08-17T01:25:08.955Z,62.83
2022-08-17T01:26:08.929Z,62.88
2022-08-17T01:27:10.285Z,62.85
2022-08-17T01:28:09.141Z,62.78
2022-08-17T01:29:08.901Z,62.75
2022-08-17T01:30:58.377Z,62.73
2022-08-17T01:31:09.894Z,62.90
2022-08-17T01:32:08.875Z,62.91
2022-08-17T01:33:08.871Z,63.01
2022-08-17T01:34:09.083Z,63.04
2022-08-17T01:35:08.855Z,62.92
2022-08-17T01:36:08.880Z,62.91
2022-08-17T01:37:08.811Z,62.96
2022-08-17T01:38:08.808Z,62.90
2022-08-17T01:39:08.837Z,62.89
2022-08-17T01:40:09.164Z,62.96
2022-08-17T01:41:08.773Z,62.82
2022-08-17T01:42:08.765Z,62.81
2022-08-17T01:43:08.836Z,62.92
2022-08-17T01:44:08.758Z,62.92
2022-08-17T01:45:08.767Z,63.12
2022-08-17T01:46:08.982Z,62.99
2022-08-17T01:47:08.713Z,63.01
2022-08-17T01:48:08.722Z,63.00
2022-08-17T01:49:08.697Z,62.92
2022-08-17T01:50:08.672Z,63.05
2022-08-17T01:51:08.710Z,63.21
2022-08-17T01:52:08.919Z,63.28
2022-08-17T01:53:08.665Z,63.31
2022-08-17T01:54:08.666Z,63.20
2022-08-17T01:55:08.629Z,63.32
2022-08-17T01:56:08.617Z,63.40
2022-08-17T01:57:08.608Z,63.33
2022-08-17T01:58:08.863Z,63.27
2022-08-17T01:59:08.608Z,63.37
2022-08-17T02:00:08.584Z,63.44
2022-08-17T02:01:08.663Z,63.34
2022-08-17T02:02:30.523Z,63.34
2022-08-17T02:03:09.724Z,63.48
2022-08-17T02:04:08.557Z,63.59
2022-08-17T02:05:08.532Z,63.54
2022-08-17T02:06:27.763Z,63.67
2022-08-17T02:07:09.527Z,63.76
2022-08-17T02:08:08.536Z,63.92
2022-08-17T02:09:09.544Z,64.00
2022-08-17T02:10:16.728Z,64.11
2022-08-17T02:11:11.690Z,64.31
2022-08-17T02:12:38.962Z,64.34
2022-08-17T02:13:09.453Z,64.44
2022-08-17T02:14:08.474Z,64.47
2022-08-17T02:15:08.441Z,64.56
2022-08-17T02:16:08.409Z,64.56
2022-08-17T02:17:09.183Z,64.54
2022-08-17T02:18:08.404Z,64.55
2022-08-17T02:19:08.435Z,64.58
2022-08-17T02:20:08.398Z,64.54
2022-08-17T02:21:08.383Z,64.61
2022-08-17T02:22:08.420Z,64.64
2022-08-17T02:23:08.605Z,64.61
2022-08-17T02:24:08.368Z,64.63
2022-08-17T02:25:08.380Z,64.73
2022-08-17T02:26:08.321Z,64.66
2022-08-17T02:27:08.347Z,64.54
2022-08-17T02:28:08.507Z,64.39
2022-08-17T02:29:08.578Z,64.43
2022-08-17T02:31:00.969Z,64.46
2022-08-17T02:31:09.257Z,64.50
2022-08-17T02:32:08.268Z,64.52
2022-08-17T02:33:09.259Z,64.47
2022-08-17T02:34:08.236Z,64.40
2022-08-17T02:35:08.433Z,64.46
2022-08-17T02:36:08.216Z,64.45
2022-08-17T02:37:08.201Z,64.40
2022-08-17T02:38:08.222Z,64.35
2022-08-17T02:39:08.200Z,64.26
2022-08-17T02:40:08.217Z,64.30
2022-08-17T02:41:08.333Z,64.45
2022-08-17T02:42:08.166Z,64.59
2022-08-17T02:43:08.147Z,64.59
2022-08-17T02:44:08.136Z,64.44
2022-08-17T02:45:08.171Z,64.43
2022-08-17T02:46:08.117Z,64.47
2022-08-17T02:47:08.364Z,64.59
2022-08-17T02:48:08.074Z,64.59
2022-08-17T02:49:08.087Z,64.51
2022-08-17T02:50:08.111Z,64.54
2022-08-17T02:51:08.054Z,64.55
2022-08-17T02:52:08.102Z,64.79
2022-08-17T02:53:08.363Z,64.74
2022-08-17T02:54:41.692Z,64.70
2022-08-17T02:55:09.062Z,64.87
2022-08-17T02:56:08.007Z,64.86
2022-08-17T02:57:08.054Z,64.81
2022-08-17T02:58:07.995Z,64.76
2022-08-17T02:59:08.141Z,64.84
2022-08-17T03:00:07.996Z,64.93
2022-08-17T03:01:07.981Z,65.05
2022-08-17T03:02:08.044Z,65.17
2022-08-17T03:03:07.949Z,65.34
2022-08-17T03:04:07.927Z,65.42
2022-08-17T03:05:08.096Z,65.39
2022-08-17T03:06:07.891Z,65.56
2022-08-17T03:07:07.890Z,65.59
2022-08-17T03:08:11.734Z,65.64
2022-08-17T03:09:08.876Z,65.57
2022-08-17T03:10:07.856Z,65.70
2022-08-17T03:11:08.066Z,65.68
2022-08-17T03:12:07.895Z,65.76
2022-08-17T03:13:07.801Z,65.85
2022-08-17T03:14:07.800Z,66.02
2022-08-17T03:15:07.822Z,66.04
2022-08-17T03:16:07.883Z,66.09
2022-08-17T03:17:07.971Z,66.04
2022-08-17T03:18:07.765Z,66.05
2022-08-17T03:19:08.775Z,66.10
2022-08-17T03:20:07.797Z,66.07
2022-08-17T03:21:07.832Z,66.12
2022-08-17T03:22:19.912Z,66.28
2022-08-17T03:23:08.721Z,66.16
2022-08-17T03:24:08.953Z,66.16
2022-08-17T03:25:10.642Z,66.27
2022-08-17T03:26:15.236Z,66.19
2022-08-17T03:27:08.889Z,66.22
2022-08-17T03:28:07.661Z,66.28
2022-08-17T03:29:07.657Z,66.15
2022-08-17T03:30:07.663Z,66.29
2022-08-17T03:31:07.636Z,66.28
2022-08-17T03:32:07.638Z,66.42
2022-08-17T03:33:07.785Z,66.51
2022-08-17T03:34:07.609Z,66.54
2022-08-17T03:35:07.723Z,66.48
2022-08-17T03:36:07.703Z,66.62
2022-08-17T03:37:07.593Z,66.69
2022-08-17T03:38:07.555Z,66.67
2022-08-17T03:39:07.866Z,66.66
2022-08-17T03:40:07.627Z,66.56
2022-08-17T03:41:07.578Z,66.46
2022-08-17T03:42:07.549Z,66.13
2022-08-17T03:43:07.508Z,66.12
2022-08-17T03:44:07.512Z,66.38
2022-08-17T03:45:07.690Z,66.45
2022-08-17T03:46:27.236Z,66.28
2022-08-17T03:47:08.481Z,66.53
2022-08-17T03:48:07.461Z,66.61
2022-08-17T03:49:07.448Z,66.49
2022-08-17T03:50:07.735Z,66.81
2022-08-17T03:51:11.419Z,66.83
2022-08-17T03:52:08.417Z,66.66
2022-08-17T03:53:07.416Z,66.85
2022-08-17T03:54:07.764Z,66.61
2022-08-17T03:55:07.395Z,66.68
2022-08-17T03:56:07.607Z,66.67
2022-08-17T03:57:07.368Z,66.68
2022-08-17T03:58:07.357Z,66.54
2022-08-17T03:59:07.328Z,66.49
2022-08-17T04:00:08.344Z,66.33
2022-08-17T04:01:07.398Z,66.40
2022-08-17T04:02:07.450Z,66.17
2022-08-17T04:03:07.275Z,66.08
2022-08-17T04:04:07.292Z,66.21
2022-08-17T04:05:07.279Z,66.29
2022-08-17T04:06:07.263Z,66.39
2022-08-17T04:07:07.257Z,66.54
2022-08-17T04:08:07.405Z,66.55
2022-08-17T04:09:07.217Z,66.53
2022-08-17T04:10:07.201Z,66.74
2022-08-17T04:11:07.210Z,66.78
2022-08-17T04:12:07.214Z,66.75
2022-08-17T04:13:07.208Z,66.75
2022-08-17T04:14:07.359Z,66.67
2022-08-17T04:15:07.166Z,66.71
2022-08-17T04:16:07.200Z,66.64
2022-08-17T04:17:07.227Z,66.86
2022-08-17T04:18:07.600Z,66.98
2022-08-17T04:19:07.167Z,67.08
2022-08-17T04:20:07.284Z,67.10
2022-08-17T04:21:07.113Z,67.10
2022-08-17T04:22:07.175Z,67.15
2022-08-17T04:23:07.123Z,67.21
2022-08-17T04:24:07.066Z,67.17
2022-08-17T04:25:07.048Z,67.05
2022-08-17T04:26:07.217Z,66.94
2022-08-17T04:27:07.026Z,66.93
2022-08-17T04:28:07.613Z,67.02
2022-08-17T04:29:08.028Z,66.89
2022-08-17T04:30:07.063Z,66.93
2022-08-17T04:31:06.992Z,66.85
2022-08-17T04:32:07.157Z,66.56
2022-08-17T04:33:07.491Z,66.43
2022-08-17T04:34:14.469Z,66.57
2022-08-17T04:35:07.943Z,66.55
2022-08-17T04:36:06.923Z,66.47
2022-08-17T04:37:07.076Z,66.37
2022-08-17T04:38:06.898Z,66.50
2022-08-17T04:39:06.893Z,66.59
2022-08-17T04:40:06.906Z,66.53
2022-08-17T04:41:06.862Z,66.42
2022-08-17T04:42:06.862Z,66.53
2022-08-17T04:43:07.285Z,66.67
2022-08-17T04:44:06.866Z,66.71
2022-08-17T04:45:06.831Z,66.69
2022-08-17T04:46:06.811Z,66.72
2022-08-17T04:47:06.823Z,66.69
2022-08-17T04:48:06.788Z,66.81
2022-08-17T04:49:06.954Z,66.63
2022-08-17T04:50:06.773Z,66.62
2022-08-17T04:51:06.766Z,66.64
2022-08-17T04:52:06.749Z,66.77
2022-08-17T04:53:06.760Z,66.87
2022-08-17T04:54:06.721Z,66.76
2022-08-17T04:55:06.978Z,66.75
2022-08-17T04:56:06.721Z,66.87
2022-08-17T04:57:06.704Z,66.75
2022-08-17T04:58:06.692Z,66.85
2022-08-17T04:59:06.676Z,66.69
2022-08-17T05:00:06.677Z,66.73
2022-08-17T05:01:07.063Z,66.92
2022-08-17T05:02:06.645Z,67.06
2022-08-17T05:03:06.645Z,67.07
2022-08-17T05:04:33.506Z,67.03
2022-08-17T05:05:07.622Z,67.28
2022-08-17T05:06:06.614Z,67.24
2022-08-17T05:07:06.755Z,67.16
2022-08-17T05:08:06.584Z,67.13
2022-08-17T05:09:06.573Z,67.07
2022-08-17T05:10:06.557Z,67.12
2022-08-17T05:11:06.550Z,67.07
2022-08-17T05:12:06.568Z,66.97
2022-08-17T05:13:06.683Z,66.75
2022-08-17T05:14:06.540Z,66.64
2022-08-17T05:15:06.527Z,66.57
2022-08-17T05:16:06.585Z,66.59
2022-08-17T05:17:10.893Z,66.45
2022-08-17T05:18:06.482Z,66.38
2022-08-17T05:19:06.687Z,66.48
2022-08-17T05:20:06.458Z,66.34
2022-08-17T05:21:06.445Z,66.26
2022-08-17T05:22:06.445Z,66.19
2022-08-17T05:23:06.427Z,66.22
2022-08-17T05:24:13.534Z,66.20
2022-08-17T05:25:07.581Z,66.02
2022-08-17T05:26:06.400Z,66.05
2022-08-17T05:27:06.877Z,66.00
2022-08-17T05:28:06.388Z,66.13
2022-08-17T05:29:06.365Z,66.09
2022-08-17T05:30:06.360Z,65.97
2022-08-17T05:31:06.513Z,65.84
2022-08-17T05:32:38.419Z,65.83
2022-08-17T05:33:07.315Z,65.75
2022-08-17T05:34:06.320Z,65.85
2022-08-17T05:35:06.287Z,65.89
2022-08-17T05:36:06.444Z,66.04
2022-08-17T05:37:06.276Z,65.86
2022-08-17T05:38:06.266Z,65.90
2022-08-17T05:39:06.246Z,65.81
2022-08-17T05:40:06.307Z,65.69
2022-08-17T05:41:06.236Z,65.65
2022-08-17T05:42:06.376Z,65.66
2022-08-17T05:43:06.207Z,65.74
2022-08-17T05:44:06.198Z,65.73
2022-08-17T05:45:06.187Z,65.73
2022-08-17T05:46:06.188Z,65.62
2022-08-17T05:47:06.166Z,65.63
2022-08-17T05:48:06.317Z,65.56
2022-08-17T05:49:06.149Z,65.64
2022-08-17T05:50:09.581Z,65.57
2022-08-17T05:51:06.139Z,65.54
2022-08-17T05:52:06.126Z,65.26
2022-08-17T05:53:06.106Z,65.21
2022-08-17T05:54:06.260Z,65.20
2022-08-17T05:55:06.097Z,65.03
2022-08-17T05:56:06.077Z,64.97
2022-08-17T05:57:07.077Z,64.81
2022-08-17T05:58:06.066Z,64.69
2022-08-17T05:59:06.051Z,64.81
2022-08-17T06:00:06.512Z,64.69
2022-08-17T06:01:06.100Z,64.63
2022-08-17T06:02:06.018Z,64.37
2022-08-17T06:03:06.008Z,64.41
2022-08-17T06:04:06.009Z,64.25
2022-08-17T06:05:05.987Z,64.18
2022-08-17T06:06:06.131Z,64.07
2022-08-17T06:07:05.978Z,63.99
2022-08-17T06:08:05.960Z,63.90
2022-08-17T06:09:05.944Z,63.71
2022-08-17T06:10:05.934Z,63.72
2022-08-17T06:11:06.073Z,63.59
2022-08-17T06:12:05.918Z,63.50
2022-08-17T06:13:05.889Z,63.30
2022-08-17T06:14:05.889Z,63.39
2022-08-17T06:15:05.869Z,63.36
2022-08-17T06:16:25.893Z,63.25
2022-08-17T06:17:07.563Z,63.05
2022-08-17T06:18:05.853Z,62.93
2022-08-17T06:19:05.843Z,62.89
2022-08-17T06:20:05.831Z,62.67
2022-08-17T06:21:05.830Z,62.58
2022-08-17T06:22:05.808Z,62.46
2022-08-17T06:23:05.957Z,62.49
2022-08-17T06:24:05.796Z,62.38
2022-08-17T06:25:10.258Z,62.34
2022-08-17T06:26:06.770Z,62.19
2022-08-17T06:27:05.753Z,62.04
2022-08-17T06:28:05.740Z,62.02
2022-08-17T06:29:05.889Z,61.91
2022-08-17T06:30:05.733Z,61.93
2022-08-17T06:31:05.715Z,61.81
2022-08-17T06:32:05.706Z,61.72
2022-08-17T06:33:05.689Z,61.51
2022-08-17T06:34:05.686Z,61.34
2022-08-17T06:35:05.828Z,61.37
2022-08-17T06:36:09.535Z,61.36
2022-08-17T06:37:05.654Z,61.36
2022-08-17T06:38:05.640Z,61.39
2022-08-17T06:39:05.625Z,61.39
2022-08-17T06:40:05.893Z,61.70
2022-08-17T06:41:05.610Z,61.54
2022-08-17T06:42:05.595Z,61.37
2022-08-17T06:43:07.202Z,61.41
2022-08-17T06:44:05.574Z,61.41
2022-08-17T06:45:05.568Z,61.53
2022-08-17T06:46:05.782Z,61.37
2022-08-17T06:47:05.551Z,61.09
2022-08-17T06:48:05.541Z,61.10
2022-08-17T06:49:05.514Z,60.95
2022-08-17T06:50:05.509Z,60.91
2022-08-17T06:51:05.491Z,60.87
2022-08-17T06:52:05.885Z,60.64
2022-08-17T06:53:05.475Z,60.83
2022-08-17T06:54:05.462Z,60.99
2022-08-17T06:55:05.446Z,60.80
2022-08-17T06:56:05.444Z,60.86
2022-08-17T06:57:05.429Z,60.95
2022-08-17T06:58:15.863Z,61.01
2022-08-17T06:59:06.404Z,60.79
2022-08-17T07:00:05.404Z,60.56
2022-08-17T07:01:05.463Z,60.59
2022-08-17T07:02:05.383Z,60.35
2022-08-17T07:03:05.709Z,59.71
2022-08-17T07:04:06.388Z,59.65
2022-08-17T07:05:06.374Z,59.33
2022-08-17T07:06:05.355Z,59.35
2022-08-17T07:07:05.332Z,59.20
2022-08-17T07:08:05.320Z,58.92
2022-08-17T07:09:05.482Z,59.09
2022-08-17T07:10:05.318Z,58.64
2022-08-17T07:11:05.292Z,58.81
2022-08-17T07:12:05.276Z,58.71
2022-08-17T07:13:05.276Z,58.53
2022-08-17T07:14:05.252Z,58.62
2022-08-17T07:15:05.439Z,58.57
2022-08-17T07:16:05.224Z,58.39
2022-08-17T07:17:05.213Z,58.04
2022-08-17T07:18:05.217Z,58.18
2022-08-17T07:19:05.198Z,58.01
2022-08-17T07:20:05.198Z,57.72
2022-08-17T07:21:05.341Z,57.77
2022-08-17T07:22:05.166Z,57.55
2022-08-17T07:23:05.152Z,57.27
2022-08-17T07:24:05.145Z,57.21
2022-08-17T07:25:05.155Z,56.99
2022-08-17T07:26:05.134Z,57.01
2022-08-17T07:27:05.263Z,56.77
2022-08-17T07:28:06.918Z,56.61
2022-08-17T07:29:05.096Z,56.76
2022-08-17T07:30:10.051Z,56.70
2022-08-17T07:31:06.067Z,56.57
2022-08-17T07:32:05.058Z,56.64
2022-08-17T07:33:05.223Z,56.64
2022-08-17T07:34:05.040Z,56.50
2022-08-17T07:35:05.023Z,56.09
2022-08-17T07:36:05.016Z,55.62
2022-08-17T07:37:05.002Z,55.55
2022-08-17T07:38:04.995Z,55.48
2022-08-17T07:39:06.137Z,55.73
2022-08-17T07:40:15.946Z,55.34
2022-08-17T07:41:05.961Z,55.22
2022-08-17T07:42:04.950Z,55.17
2022-08-17T07:43:05.125Z,55.01
2022-08-17T07:44:05.086Z,55.09
2022-08-17T07:45:04.915Z,55.04
2022-08-17T07:46:04.915Z,54.91
2022-08-17T07:47:04.896Z,54.60
2022-08-17T07:48:04.886Z,54.43
2022-08-17T07:49:05.055Z,54.12
2022-08-17T07:50:04.856Z,54.34
2022-08-17T07:51:04.848Z,54.32
2022-08-17T07:52:47.725Z,54.25
2022-08-17T07:53:05.837Z,54.23
2022-08-17T07:54:14.648Z,53.65
2022-08-17T07:55:06.037Z,53.35
2022-08-17T07:56:04.826Z,53.51
2022-08-17T07:57:04.780Z,53.61
2022-08-17T07:58:04.776Z,53.65
2022-08-17T07:59:04.777Z,53.42
2022-08-17T08:00:04.752Z,53.67
2022-08-17T08:01:04.908Z,53.63
2022-08-17T08:02:05.375Z,53.31
2022-08-17T08:03:04.731Z,52.94
2022-08-17T08:04:05.738Z,52.79
2022-08-17T08:05:06.533Z,52.73
2022-08-17T08:06:04.846Z,52.31
2022-08-17T08:07:04.678Z,52.12
2022-08-17T08:08:04.680Z,52.36
2022-08-17T08:09:04.648Z,52.15
2022-08-17T08:10:04.648Z,52.01
2022-08-17T08:11:04.887Z,51.56
2022-08-17T08:12:04.627Z,51.68
2022-08-17T08:13:04.619Z,51.32
2022-08-17T08:14:04.615Z,51.24
2022-08-17T08:15:04.588Z,51.12
2022-08-17T08:16:04.587Z,50.89
2022-08-17T08:17:04.770Z,50.64
2022-08-17T08:18:04.558Z,50.55
2022-08-17T08:19:04.558Z,50.54
2022-08-17T08:20:35.017Z,49.79
2022-08-17T08:21:05.543Z,50.07
2022-08-17T08:22:04.531Z,50.26
2022-08-17T08:23:04.670Z,50.01
2022-08-17T08:24:04.500Z,50.09
2022-08-17T08:25:04.486Z,50.12
2022-08-17T08:26:04.494Z,50.23
2022-08-17T08:27:04.470Z,50.24
2022-08-17T08:28:04.621Z,50.36
2022-08-17T08:29:04.456Z,50.52
2022-08-17T08:30:04.429Z,50.05
2022-08-17T08:31:04.431Z,49.46
2022-08-17T08:32:04.419Z,49.24
2022-08-17T08:33:04.423Z,49.28
2022-08-17T08:34:04.551Z,49.27
2022-08-17T08:35:04.401Z,49.10
2022-08-17T08:36:04.389Z,48.62
2022-08-17T08:37:16.307Z,48.58
2022-08-17T08:38:05.359Z,47.95
2022-08-17T08:39:04.342Z,47.22
2022-08-17T08:40:04.671Z,46.97
2022-08-17T08:41:04.341Z,46.80
2022-08-17T08:42:04.310Z,46.93
2022-08-17T08:43:04.307Z,46.50
2022-08-17T08:44:04.282Z,46.89
2022-08-17T08:45:05.426Z,46.81
2022-08-17T08:46:04.428Z,46.73
2022-08-17T08:47:04.251Z,46.71
2022-08-17T08:48:05.622Z,46.44
2022-08-17T08:49:10.286Z,45.62
2022-08-17T08:50:05.806Z,46.08
2022-08-17T08:51:04.221Z,45.57
2022-08-17T08:52:04.359Z,45.11
2022-08-17T08:53:04.183Z,44.73
2022-08-17T08:54:04.180Z,44.27
2022-08-17T08:55:04.183Z,44.22
2022-08-17T08:56:04.157Z,44.76
2022-08-17T08:58:05.133Z,44.03
2022-08-17T08:59:04.132Z,43.31
2022-08-17T09:00:04.118Z,43.39
2022-08-17T09:01:04.163Z,43.51
2022-08-17T09:02:04.097Z,43.27
2022-08-17T09:03:04.420Z,43.24
2022-08-17T09:04:21.498Z,43.19
2022-08-17T09:05:20.082Z,43.23
2022-08-17T09:06:05.065Z,43.67
2022-08-17T09:07:05.044Z,43.27
2022-08-17T09:08:04.035Z,43.21
2022-08-17T09:09:04.173Z,42.16
2022-08-17T09:10:04.020Z,42.17
2022-08-17T09:11:04.008Z,42.18
2022-08-17T09:12:04.303Z,41.99
2022-08-17T09:13:09.983Z,41.91
2022-08-17T09:14:05.147Z,42.61
2022-08-17T09:15:08.236Z,42.29
2022-08-17T09:16:04.950Z,42.35
2022-08-17T09:17:03.935Z,42.26
2022-08-17T09:18:58.968Z,42.33
2022-08-17T09:19:05.425Z,42.14
2022-08-17T09:20:04.330Z,41.29
2022-08-17T09:21:03.897Z,39.83
2022-08-17T09:22:03.877Z,40.80
2022-08-17T09:23:03.959Z,40.72
2022-08-17T09:24:03.875Z,40.61
2022-08-17T09:25:03.858Z,40.46
2022-08-17T09:26:04.007Z,39.06
2022-08-17T09:27:03.835Z,38.22
2022-08-17T09:28:03.851Z,38.12
2022-08-17T09:29:03.819Z,38.35
2022-08-17T09:30:03.798Z,38.57
2022-08-17T09:31:03.968Z,38.68
2022-08-17T09:32:03.831Z,40.27
2022-08-17T09:33:03.768Z,39.45
2022-08-17T09:34:03.759Z,39.41
2022-08-17T09:35:03.771Z,39.31
2022-08-17T09:36:03.737Z,39.51
2022-08-17T09:37:03.896Z,39.05
2022-08-17T09:38:04.017Z,38.53
2022-08-17T09:39:03.702Z,39.36
2022-08-17T09:40:03.734Z,38.69
2022-08-17T09:41:03.690Z,38.04
2022-08-17T09:42:03.858Z,37.75
2022-08-17T09:43:03.673Z,37.71
2022-08-17T09:44:03.649Z,36.78
2022-08-17T09:45:03.640Z,36.89
2022-08-17T09:46:03.630Z,36.96
2022-08-17T09:47:03.630Z,36.81
2022-08-17T09:48:03.775Z,37.28
2022-08-17T09:49:03.709Z,37.09
2022-08-17T09:50:03.597Z,36.62
2022-08-17T09:51:06.588Z,36.78
2022-08-17T09:52:03.561Z,36.94
2022-08-17T09:53:03.720Z,36.71
2022-08-17T09:54:21.375Z,36.92
2022-08-17T09:55:04.532Z,37.13
2022-08-17T09:56:03.544Z,37.58
2022-08-17T09:57:27.931Z,37.61
2022-08-17T09:58:04.651Z,37.75
2022-08-17T09:59:03.530Z,37.89
2022-08-17T10:00:03.552Z,37.83
2022-08-17T10:01:03.553Z,37.89
2022-08-17T10:02:03.501Z,37.94
2022-08-17T10:03:03.452Z,37.70
2022-08-17T10:04:03.601Z,37.78
2022-08-17T10:05:03.431Z,38.79
2022-08-17T10:06:06.542Z,37.73
2022-08-17T10:07:03.406Z,37.60
2022-08-17T10:08:03.422Z,38.69
2022-08-17T10:09:03.542Z,38.10
2022-08-17T10:10:03.374Z,38.87
2022-08-17T10:11:03.396Z,38.11
2022-08-17T10:12:03.362Z,37.43
2022-08-17T10:13:03.342Z,37.73
2022-08-17T10:14:03.333Z,37.15
2022-08-17T10:15:08.089Z,37.33
2022-08-17T10:16:03.323Z,36.70
2022-08-17T10:17:03.306Z,36.45
2022-08-17T10:18:03.301Z,36.72
2022-08-17T10:19:03.278Z,36.75
2022-08-17T10:20:03.272Z,36.80
2022-08-17T10:21:03.524Z,36.60
2022-08-17T10:22:32.402Z,37.00
2022-08-17T10:23:04.237Z,36.89
2022-08-17T10:24:03.238Z,37.21
2022-08-17T10:25:22.349Z,36.39
2022-08-17T10:26:04.534Z,36.15
2022-08-17T10:27:03.200Z,35.56
2022-08-17T10:28:03.183Z,35.28
2022-08-17T10:29:03.181Z,35.63
2022-08-17T10:30:03.181Z,35.62
2022-08-17T10:31:34.416Z,35.31
2022-08-17T10:32:04.362Z,34.89
2022-08-17T10:33:03.136Z,35.14
2022-08-17T10:34:03.142Z,35.41
2022-08-17T10:35:03.118Z,35.83
2022-08-17T10:36:06.361Z,36.12
2022-08-17T10:37:04.098Z,36.13
2022-08-17T10:38:03.242Z,36.57
2022-08-17T10:39:03.065Z,36.77
2022-08-17T10:40:03.124Z,36.58
2022-08-17T10:41:03.061Z,36.47
2022-08-17T10:42:03.030Z,36.30
2022-08-17T10:43:03.195Z,36.40
2022-08-17T10:44:40.692Z,36.45
2022-08-17T10:45:04.013Z,36.62
2022-08-17T10:46:09.432Z,36.53
2022-08-17T10:47:04.000Z,36.52
2022-08-17T10:48:06.222Z,36.40
2022-08-17T10:49:02.965Z,36.67
2022-08-17T10:50:02.951Z,38.86
2022-08-17T10:51:02.959Z,37.47
2022-08-17T10:52:02.934Z,36.98
2022-08-17T10:53:02.926Z,36.92
2022-08-17T10:54:03.069Z,36.56
2022-08-17T10:55:02.926Z,36.30
2022-08-17T10:56:02.896Z,35.82
2022-08-17T10:57:02.907Z,35.72
2022-08-17T10:58:02.913Z,35.84
2022-08-17T10:59:02.874Z,35.87
2022-08-17T11:00:03.011Z,35.76
2022-08-17T11:01:02.903Z,35.53
2022-08-17T11:02:02.839Z,35.04
2022-08-17T11:03:02.833Z,35.38
2022-08-17T11:04:02.816Z,35.95
2022-08-17T11:05:02.961Z,36.09
2022-08-17T11:06:02.790Z,36.24
2022-08-17T11:07:02.788Z,36.45
2022-08-17T11:08:02.774Z,35.93
2022-08-17T11:09:02.767Z,35.96
2022-08-17T11:10:02.929Z,37.65
2022-08-17T11:11:02.751Z,36.41
2022-08-17T11:12:02.729Z,36.58
2022-08-17T11:13:02.718Z,37.74
2022-08-17T11:14:02.717Z,36.36
2022-08-17T11:15:02.721Z,36.25
2022-08-17T11:16:08.113Z,37.56
2022-08-17T11:17:03.700Z,35.83
2022-08-17T11:18:02.690Z,35.52
2022-08-17T11:19:02.661Z,35.23
2022-08-17T11:20:03.001Z,35.02
2022-08-17T11:21:02.639Z,35.46
2022-08-17T11:22:02.623Z,35.06
2022-08-17T11:23:02.630Z,34.88
2022-08-17T11:24:02.600Z,35.21
2022-08-17T11:25:02.595Z,35.09
2022-08-17T11:26:02.780Z,34.70
2022-08-17T11:27:02.577Z,34.80
2022-08-17T11:28:02.569Z,36.40
2022-08-17T11:29:02.561Z,35.35
2022-08-17T11:30:03.098Z,35.33
2022-08-17T11:31:02.531Z,35.62
2022-08-17T11:32:02.710Z,35.42
2022-08-17T11:33:02.521Z,35.66
2022-08-17T11:34:02.510Z,35.27
2022-08-17T11:35:02.510Z,35.28
2022-08-17T11:36:02.506Z,37.34
2022-08-17T11:37:02.472Z,37.52
2022-08-17T11:38:02.610Z,39.44
2022-08-17T11:39:02.457Z,34.99
2022-08-17T11:40:02.491Z,34.77
2022-08-17T11:41:02.463Z,35.01
2022-08-17T11:42:02.652Z,34.40
2022-08-17T11:43:02.407Z,34.27
2022-08-17T11:44:02.815Z,34.29
2022-08-17T11:45:02.388Z,34.20
2022-08-17T11:46:02.373Z,34.81
2022-08-17T11:47:02.364Z,34.46
2022-08-17T11:48:26.479Z,34.53
2022-08-17T11:49:03.346Z,34.36
2022-08-17T11:50:02.383Z,34.28
2022-08-17T11:51:02.324Z,34.30
2022-08-17T11:52:02.319Z,34.41
2022-08-17T11:53:02.310Z,35.42
2022-08-17T11:54:31.144Z,36.39
2022-08-17T11:55:18.007Z,37.62
2022-08-17T11:56:03.274Z,37.13
2022-08-17T11:57:02.280Z,35.06
2022-08-17T11:58:02.261Z,34.91
2022-08-17T11:59:02.245Z,34.91
2022-08-17T12:00:02.645Z,34.35
2022-08-17T12:01:02.243Z,34.94
2022-08-17T12:02:02.206Z,35.89
2022-08-17T12:03:02.195Z,35.83
2022-08-17T12:04:02.220Z,36.69
2022-08-17T12:05:02.181Z,35.53
2022-08-17T12:06:02.315Z,35.02
2022-08-17T12:07:02.146Z,34.86
2022-08-17T12:08:02.148Z,37.03
2022-08-17T12:09:02.128Z,34.94
2022-08-17T12:10:02.115Z,34.72
2022-08-17T12:11:02.116Z,34.27
2022-08-17T12:12:13.223Z,34.14
2022-08-17T12:13:03.090Z,33.99
2022-08-17T12:14:02.086Z,33.81
2022-08-17T12:15:10.966Z,34.16
2022-08-17T12:16:03.051Z,36.59
2022-08-17T12:17:02.050Z,37.77
2022-08-17T12:18:02.428Z,34.48
2022-08-17T12:19:02.026Z,34.55
2022-08-17T12:20:02.041Z,36.34
2022-08-17T12:21:02.018Z,37.43
2022-08-17T12:22:02.002Z,35.08
2022-08-17T12:23:01.984Z,36.67
2022-08-17T12:24:02.189Z,34.32
2022-08-17T12:25:01.960Z,33.63
2022-08-17T12:26:01.965Z,33.60
2022-08-17T12:27:01.949Z,33.50
2022-08-17T12:28:06.086Z,34.29
2022-08-17T12:29:03.118Z,34.31
2022-08-17T12:30:01.924Z,35.12
2022-08-17T12:31:01.908Z,35.57
2022-08-17T12:32:01.889Z,35.32
2022-08-17T12:33:01.890Z,35.16
2022-08-17T12:34:01.870Z,34.34
2022-08-17T12:35:02.169Z,33.80
2022-08-17T12:36:01.850Z,33.67
2022-08-17T12:37:01.848Z,34.72
2022-08-17T12:38:01.859Z,33.90
2022-08-17T12:39:14.369Z,34.44
2022-08-17T12:40:03.068Z,34.07
2022-08-17T12:41:01.803Z,34.05
2022-08-17T12:42:02.809Z,34.01
2022-08-17T12:43:01.774Z,33.45
2022-08-17T12:44:01.855Z,33.23
2022-08-17T12:45:01.751Z,33.11
2022-08-17T12:46:13.275Z,33.04
2022-08-17T12:47:02.747Z,32.87
2022-08-17T12:48:01.719Z,32.74
2022-08-17T12:49:01.728Z,32.74
2022-08-17T12:50:01.702Z,32.75
2022-08-17T12:51:01.706Z,32.89
2022-08-17T12:52:02.039Z,32.95
2022-08-17T12:53:02.649Z,34.28